Time;durP1;ratioP1;P1;durP2;ratioP2;P2;SDS_P1;SDS_P2;PMS_P1;PMS_P2;Temp;Humidity;BMP_temperature;BMP_pressure;BME280_temperature;BME280_humidity;BME280_pressure;Samples;Min_cycle;Max_cycle;Signal;HPM_P1;HPM_P2
2022/08/07 00:02:05;;;;;;;;;;;;;;;-144.99;100.00;61100.13;5064169;28;20014;-62
2022/08/07 00:04:32;;;;;;;;;;;;;;;-144.99;100.00;61100.13;5072202;28;19950;-62
2022/08/07 00:06:58;;;;;;;;;;;;;;;-144.99;100.00;61100.13;5068461;28;19967;-61
2022/08/07 00:09:25;;;;;;;;;;;;;;;-144.99;100.00;61100.13;5069062;28;20015;-62
2022/08/07 00:11:51;;;;;;;;;;;;;;;-144.99;100.00;61100.13;5068590;28;20004;-62
2022/08/07 00:14:18;;;;;;;;;;;;;;;-144.99;100.00;61100.13;5067919;28;19928;-62
2022/08/07 00:16:45;;;;;;;;;;;;;;;-144.99;100.00;61100.13;5069548;28;19960;-64
2022/08/07 00:19:12;;;;;;;;;;;;;;;-144.99;100.00;61100.13;5070123;28;19925;-66
2022/08/07 00:21:38;;;;;;;;;;;;;;;-144.99;100.00;61100.13;5069055;28;19928;-65
2022/08/07 00:24:05;;;;;;;;;;;;;;;-144.99;100.00;61100.13;5066773;28;19928;-66
2022/08/07 00:26:32;;;;;;;;;;;;;;;-144.99;100.00;61100.13;5067546;28;20415;-65
2022/08/07 00:28:58;;;;;;;;;;;;;;;-144.99;100.00;61100.13;5069828;28;19928;-65
2022/08/07 00:31:26;;;;;;;;;;;;;;;-144.99;100.00;61100.13;5063643;28;20011;-65
2022/08/07 00:33:54;;;;;;;;;;;;;;;-144.99;100.00;61100.13;5069186;28;19925;-66
2022/08/07 00:36:20;;;;;;;;;;;;;;;-144.99;100.00;61100.13;5057369;28;20050;-65
2022/08/07 00:38:46;;;;;;;;;;;;;;;-144.99;100.00;61100.13;5069130;28;19924;-64
2022/08/07 00:41:13;;;;;;;;;;;;;;;-144.99;100.00;61100.13;5069608;28;19934;-67
2022/08/07 00:43:39;;;;;;;;;;;;;;;-144.99;100.00;61100.13;5069374;28;20019;-65
2022/08/07 00:46:06;;;;;;;;;;;;;;;-144.99;100.00;61100.13;5065765;28;20018;-65
2022/08/07 00:48:32;;;;;;;;;;;;;;;-144.99;100.00;61100.13;5067690;28;19975;-65
2022/08/07 00:51:01;;;;;;;;;;;;;;;-144.99;100.00;61100.13;5068857;28;19934;-65
2022/08/07 00:53:27;;;;;;;;;;;;;;;-144.99;100.00;61100.13;5069471;28;19933;-66
2022/08/07 00:55:54;;;;;;;;;;;;;;;-144.99;100.00;61100.13;5067222;28;20444;-66
2022/08/07 00:58:21;;;;;;;;;;;;;;;-144.99;100.00;61100.13;5063162;28;19928;-65
2022/08/07 01:00:48;;;;;;;;;;;;;;;-144.99;100.00;61100.13;5066728;28;19933;-66
2022/08/07 01:03:14;;;;;;;;;;;;;;;-144.99;100.00;61100.13;5066243;28;19929;-64
2022/08/07 01:05:42;;;;;;;;;;;;;;;-144.99;100.00;61100.13;5066496;28;19932;-65
2022/08/07 01:08:10;;;;;;;;;;;;;;;-144.99;100.00;61100.13;5059083;28;19935;-65
2022/08/07 01:10:38;;;;;;;;;;;;;;;-144.99;100.00;61100.13;5063054;28;19947;-65
2022/08/07 01:13:04;;;;;;;;;;;;;;;-144.99;100.00;61100.13;5058243;28;19931;-59
2022/08/07 01:15:32;;;;;;;;;;;;;;;-144.99;100.00;61100.13;5068286;28;19924;-60
2022/08/07 01:17:58;;;;;;;;;;;;;;;-144.99;100.00;61100.13;5066566;28;20260;-60
2022/08/07 01:20:30;;;;;;;;;;;;;;;-144.99;100.00;61100.13;5064588;28;20275;-61
2022/08/07 01:22:59;;;;;;;;;;;;;;;-144.99;100.00;61100.13;5067335;28;19925;-61
2022/08/07 01:25:26;;;;;;;;;;;;;;;-144.99;100.00;61100.13;5057566;28;19931;-61
2022/08/07 01:27:52;;;;;;;;;;;;;;;-144.99;100.00;61100.13;5059775;28;19929;-61
2022/08/07 01:30:19;;;;;;;;;;;;;;;-144.99;100.00;61100.13;5066955;28;20463;-61
2022/08/07 01:32:45;;;;;;;;;;;;;;;-144.99;100.00;61100.13;5068090;28;20308;-60
2022/08/07 01:35:12;;;;;;;;;;;;;;;-144.99;100.00;61100.13;5066218;28;19929;-59
2022/08/07 01:37:38;;;;;;;;;;;;;;;-144.99;100.00;61100.13;5066887;28;20043;-61
2022/08/07 01:40:08;;;;;;;;;;;;;;;-144.99;100.00;61100.13;5068023;28;20239;-61
2022/08/07 01:42:34;;;;;;;;;;;;;;;-144.99;100.00;61100.13;5068119;28;20362;-60
2022/08/07 01:45:01;;;;;;;;;;;;;;;-144.99;100.00;61100.13;5066440;28;19929;-60
2022/08/07 01:47:28;;;;;;;;;;;;;;;-144.99;100.00;61100.13;5067103;28;20074;-59
2022/08/07 01:49:55;;;;;;;;;;;;;;;-144.99;100.00;61100.13;5056408;28;19925;-61
2022/08/07 01:52:23;;;;;;;;;;;;;;;-144.99;100.00;61100.13;5056801;28;20330;-59
2022/08/07 01:54:51;;;;;;;;;;;;;;;-144.99;100.00;61100.13;5066692;28;20500;-59
2022/08/07 01:57:21;;;;;;;;;;;;;;;-144.99;100.00;61100.13;5066207;28;20288;-59
2022/08/07 01:59:51;;;;;;;;;;;;;;;-144.99;100.00;61100.13;4713993;28;10000319;-59
2022/08/07 02:02:21;;;;;;;;;;;;;;;-144.99;100.00;61100.13;5067514;28;19929;-59
2022/08/07 02:04:51;;;;;;;;;;;;;;;-144.99;100.00;61100.13;5067540;28;20373;-61
2022/08/07 02:07:20;;;;;;;;;;;;;;;-144.99;100.00;61100.13;5065764;28;19928;-59
2022/08/07 02:09:47;;;;;;;;;;;;;;;-144.99;100.00;61100.13;5068849;28;20054;-60
2022/08/07 02:12:17;;;;;;;;;;;;;;;-144.99;100.00;61100.13;5068454;28;20424;-59
2022/08/07 02:14:46;;;;;;;;;;;;;;;-144.99;100.00;61100.13;5070102;28;19925;-60
2022/08/07 02:17:14;;;;;;;;;;;;;;;-144.99;100.00;61100.13;5066262;28;19925;-61
2022/08/07 02:19:42;;;;;;;;;;;;;;;-144.99;100.00;61100.13;5052487;28;19925;-60
2022/08/07 02:22:11;;;;;;;;;;;;;;;-144.99;100.00;61100.13;5067662;28;19928;-61
2022/08/07 02:24:37;;;;;;;;;;;;;;;-144.99;100.00;61100.13;5070550;28;20396;-60
2022/08/07 02:27:05;;;;;;;;;;;;;;;-144.99;100.00;61100.13;5068352;28;20024;-60
2022/08/07 02:29:32;;;;;;;;;;;;;;;-144.99;100.00;61100.13;5067993;28;20276;-61
2022/08/07 02:32:01;;;;;;;;;;;;;;;-144.99;100.00;61100.13;5069948;28;20397;-61
2022/08/07 02:34:28;;;;;;;;;;;;;;;-144.99;100.00;61100.13;5067347;28;20031;-60
2022/08/07 02:36:56;;;;;;;;;;;;;;;-144.99;100.00;61100.13;5069434;28;20015;-60
2022/08/07 02:39:23;;;;;;;;;;;;;;;-144.99;100.00;61100.13;5069912;28;19924;-61
2022/08/07 02:41:50;;;;;;;;;;;;;;;-144.99;100.00;61100.13;5070152;28;20011;-60
2022/08/07 02:44:17;;;;;;;;;;;;;;;-144.99;100.00;61100.13;5058887;28;19924;-59
2022/08/07 02:46:46;;;;;;;;;;;;;;;-144.99;100.00;61100.13;5066143;28;19925;-61
2022/08/07 02:49:14;;;;;;;;;;;;;;;-144.99;100.00;61100.13;5069621;28;19936;-61
2022/08/07 02:51:41;;;;;;;;;;;;;;;-144.99;100.00;61100.13;5068313;28;20018;-60
2022/08/07 02:54:09;;;;;;;;;;;;;;;-144.99;100.00;61100.13;5068340;28;20413;-61
2022/08/07 02:56:38;;;;;;;;;;;;;;;-144.99;100.00;61100.13;5062504;28;20309;-61
2022/08/07 02:59:09;;;;;;;;;;;;;;;-144.99;100.00;61100.13;5069264;28;19925;-61
2022/08/07 03:01:37;;;;;;;;;;;;;;;-144.99;100.00;61100.13;5063772;28;19924;-61
2022/08/07 03:04:05;;;;;;;;;;;;;;;-144.99;100.00;61100.13;5060730;28;20341;-59
2022/08/07 03:06:34;;;;;;;;;;;;;;;-144.99;100.00;61100.13;5068371;28;19928;-60
2022/08/07 03:09:01;;;;;;;;;;;;;;;-144.99;100.00;61100.13;5066842;28;20019;-60
2022/08/07 03:11:28;;;;;;;;;;;;;;;-144.99;100.00;61100.13;5067089;28;20360;-60
2022/08/07 03:13:54;;;;;;;;;;;;;;;-144.99;100.00;61100.13;5068352;28;20018;-59
2022/08/07 03:16:21;;;;;;;;;;;;;;;-144.99;100.00;61100.13;5063416;28;20274;-60
2022/08/07 03:18:47;;;;;;;;;;;;;;;-144.99;100.00;61100.13;5063795;28;20335;-64
2022/08/07 03:21:14;;;;;;;;;;;;;;;-144.99;100.00;61100.13;5069614;28;19978;-65
2022/08/07 03:23:42;;;;;;;;;;;;;;;-144.99;100.00;61100.13;5068071;28;19946;-66
2022/08/07 03:26:10;;;;;;;;;;;;;;;-144.99;100.00;61100.13;5063581;28;19924;-64
2022/08/07 03:28:36;;;;;;;;;;;;;;;-144.99;100.00;61100.13;5068761;28;20019;-64
2022/08/07 03:31:19;;;;;;;;;;;;;;;-144.99;100.00;61100.13;5068980;28;20324;-63
2022/08/07 03:33:47;;;;;;;;;;;;;;;-144.99;100.00;61100.13;5066035;28;20377;-63
2022/08/07 03:36:14;;;;;;;;;;;;;;;-144.99;100.00;61100.13;5068322;28;19931;-61
2022/08/07 03:38:42;;;;;;;;;;;;;;;-144.99;100.00;61100.13;5069064;28;19947;-61
2022/08/07 03:41:09;;;;;;;;;;;;;;;-144.99;100.00;61100.13;5069395;28;19943;-61
2022/08/07 03:43:36;;;;;;;;;;;;;;;-144.99;100.00;61100.13;5069916;28;20020;-61
2022/08/07 03:46:03;;;;;;;;;;;;;;;-144.99;100.00;61100.13;5066982;28;19924;-61
2022/08/07 03:48:31;;;;;;;;;;;;;;;-144.99;100.00;61100.13;5072907;28;19924;-60
2022/08/07 03:50:58;;;;;;;;;;;;;;;-144.99;100.00;61100.13;5066079;28;20027;-62
2022/08/07 03:53:25;;;;;;;;;;;;;;;-144.99;100.00;61100.13;5066516;28;19924;-63
2022/08/07 03:55:53;;;;;;;;;;;;;;;-144.99;100.00;61100.13;5071271;28;20031;-62
2022/08/07 03:58:21;;;;;;;;;;;;;;;-144.99;100.00;61100.13;5078756;22;20315;-64
2022/08/07 04:00:48;;;;;;;;;;;;;;;-144.99;100.00;61100.13;5091373;28;19931;-64
2022/08/07 04:03:15;;;;;;;;;;;;;;;-144.99;100.00;61100.13;5085940;28;20377;-68
2022/08/07 04:05:41;;;;;;;;;;;;;;;-144.99;100.00;61100.13;5083094;28;20020;-67
2022/08/07 04:08:09;;;;;;;;;;;;;;;-144.99;100.00;61100.13;5083277;28;19928;-68
2022/08/07 04:10:36;;;;;;;;;;;;;;;-144.99;100.00;61100.13;5091979;28;19924;-69
2022/08/07 04:13:06;;;;;;;;;;;;;;;-144.99;100.00;61100.13;5092034;28;19924;-64
2022/08/07 04:15:32;;;;;;;;;;;;;;;-144.99;100.00;61100.13;5090062;28;20183;-65
2022/08/07 04:17:59;;;;;;;;;;;;;;;-144.99;100.00;61100.13;5091032;28;19924;-65
2022/08/07 04:20:26;;;;;;;;;;;;;;;-144.99;100.00;61100.13;5091433;28;20146;-65
2022/08/07 04:22:53;;;;;;;;;;;;;;;-144.99;100.00;61100.13;5088811;28;19924;-65
2022/08/07 04:25:19;;;;;;;;;;;;;;;-144.99;100.00;61100.13;5088726;28;20377;-64
2022/08/07 04:27:46;;;;;;;;;;;;;;;-144.99;100.00;61100.13;5089855;28;20128;-64
2022/08/07 04:30:14;;;;;;;;;;;;;;;-144.99;100.00;61100.13;5090559;28;20439;-63
2022/08/07 04:32:41;;;;;;;;;;;;;;;-144.99;100.00;61100.13;5091315;28;20016;-64
2022/08/07 04:35:08;;;;;;;;;;;;;;;-144.99;100.00;61100.13;5088263;28;20000;-64
2022/08/07 04:37:35;;;;;;;;;;;;;;;-144.99;100.00;61100.13;5090777;28;19946;-64
2022/08/07 04:40:01;;;;;;;;;;;;;;;-144.99;100.00;61100.13;5091064;28;20356;-64
2022/08/07 04:42:30;;;;;;;;;;;;;;;-144.99;100.00;61100.13;5088952;28;19991;-64
2022/08/07 04:44:58;;;;;;;;;;;;;;;-144.99;100.00;61100.13;5090537;28;19924;-64
2022/08/07 04:47:35;;;;;;;;;;;;;;;-144.99;100.00;61100.13;5091019;28;19931;-64
2022/08/07 04:50:05;;;;;;;;;;;;;;;-144.99;100.00;61100.13;5090647;28;20379;-63
2022/08/07 04:52:36;;;;;;;;;;;;;;;-144.99;100.00;61100.13;5089112;28;20027;-64
2022/08/07 04:55:06;;;;;;;;;;;;;;;-144.99;100.00;61100.13;5088865;28;20066;-59
2022/08/07 04:57:34;;;;;;;;;;;;;;;-144.99;100.00;61100.13;5090481;28;20440;-58
2022/08/07 05:00:03;;;;;;;;;;;;;;;-144.99;100.00;61100.13;5090872;28;20014;-59
2022/08/07 05:02:33;;;;;;;;;;;;;;;-144.99;100.00;61100.13;5085857;28;19954;-60
2022/08/07 05:05:02;;;;;;;;;;;;;;;-144.99;100.00;61100.13;5090657;28;20301;-59
2022/08/07 05:07:32;;;;;;;;;;;;;;;-144.99;100.00;61100.13;5087457;28;19924;-57
2022/08/07 05:10:00;;;;;;;;;;;;;;;-144.99;100.00;61100.13;5090581;28;20018;-59
2022/08/07 05:12:29;;;;;;;;;;;;;;;-144.99;100.00;61100.13;5085686;28;19924;-59
2022/08/07 05:15:00;;;;;;;;;;;;;;;-144.99;100.00;61100.13;5090788;28;19928;-58
2022/08/07 05:17:29;;;;;;;;;;;;;;;-144.99;100.00;61100.13;5090334;28;20432;-58
2022/08/07 05:19:57;;;;;;;;;;;;;;;-144.99;100.00;61100.13;5089526;28;19932;-60
2022/08/07 05:22:24;;;;;;;;;;;;;;;-144.99;100.00;61100.13;5087472;28;20023;-61
2022/08/07 05:24:51;;;;;;;;;;;;;;;-144.99;100.00;61100.13;5090162;28;20418;-60
2022/08/07 05:27:19;;;;;;;;;;;;;;;-144.99;100.00;61100.13;5089517;28;19924;-61
2022/08/07 05:29:46;;;;;;;;;;;;;;;-144.99;100.00;61100.13;5089841;28;20088;-66
2022/08/07 05:32:16;;;;;;;;;;;;;;;-144.99;100.00;61100.13;5087926;28;19924;-65
2022/08/07 05:34:43;;;;;;;;;;;;;;;-144.99;100.00;61100.13;5088403;28;20023;-65
2022/08/07 05:37:13;;;;;;;;;;;;;;;-144.99;100.00;61100.13;5081296;28;19951;-64
2022/08/07 05:39:39;;;;;;;;;;;;;;;-144.99;100.00;61100.13;5087596;28;19981;-65
2022/08/07 05:42:06;;;;;;;;;;;;;;;-144.99;100.00;61100.13;5090198;28;19931;-65
2022/08/07 05:44:34;;;;;;;;;;;;;;;-144.99;100.00;61100.13;5088815;28;20023;-65
2022/08/07 05:47:01;;;;;;;;;;;;;;;-144.99;100.00;61100.13;5086264;28;20019;-65
2022/08/07 05:49:28;;;;;;;;;;;;;;;-144.99;100.00;61100.13;5090050;28;19924;-65
2022/08/07 05:51:54;;;;;;;;;;;;;;;-144.99;100.00;61100.13;5090333;28;20201;-65
2022/08/07 05:54:22;;;;;;;;;;;;;;;-144.99;100.00;61100.13;5088059;28;20342;-65
2022/08/07 05:56:49;;;;;;;;;;;;;;;-144.99;100.00;61100.13;5090362;28;19924;-66
2022/08/07 05:59:16;;;;;;;;;;;;;;;-144.99;100.00;61100.13;5085742;28;19935;-65
2022/08/07 06:01:44;;;;;;;;;;;;;;;-144.99;100.00;61100.13;5089039;28;20427;-65
2022/08/07 06:04:10;;;;;;;;;;;;;;;-144.99;100.00;61100.13;5087643;28;19935;-63
2022/08/07 06:06:37;;;;;;;;;;;;;;;-144.99;100.00;61100.13;5082528;28;20019;-64
2022/08/07 06:09:04;;;;;;;;;;;;;;;-144.99;100.00;61100.13;5086426;28;19975;-65
2022/08/07 06:11:32;;;;;;;;;;;;;;;-144.99;100.00;61100.13;5089545;28;20394;-65
2022/08/07 06:13:59;;;;;;;;;;;;;;;-144.99;100.00;61100.13;5088846;28;19937;-64
2022/08/07 06:16:27;;;;;;;;;;;;;;;-144.99;100.00;61100.13;5087686;28;19967;-64
2022/08/07 06:18:54;;;;;;;;;;;;;;;-144.99;100.00;61100.13;5090220;28;20004;-66
2022/08/07 06:21:20;;;;;;;;;;;;;;;-144.99;100.00;61100.13;5089552;28;20015;-66
2022/08/07 06:23:47;;;;;;;;;;;;;;;-144.99;100.00;61100.13;5089281;28;19994;-65
2022/08/07 06:26:14;;;;;;;;;;;;;;;-144.99;100.00;61100.13;5087051;28;19930;-64
2022/08/07 06:28:53;;;;;;;;;;;;;;;-144.99;100.00;61100.13;5089295;28;20276;-66
2022/08/07 06:31:20;;;;;;;;;;;;;;;-144.99;100.00;61100.13;5084036;28;20272;-66
2022/08/07 06:33:46;;;;;;;;;;;;;;;-144.99;100.00;61100.13;5087451;28;19931;-65
2022/08/07 06:36:13;;;;;;;;;;;;;;;-144.99;100.00;61100.13;5086256;28;20448;-67
2022/08/07 06:38:40;;;;;;;;;;;;;;;-144.99;100.00;61100.13;5089199;28;19928;-63
2022/08/07 06:41:08;;;;;;;;;;;;;;;-144.99;100.00;61100.13;5089231;28;19938;-61
2022/08/07 06:43:36;;;;;;;;;;;;;;;-144.99;100.00;61100.13;5089384;28;20353;-61
2022/08/07 06:46:04;;;;;;;;;;;;;;;-144.99;100.00;61100.13;5086955;28;19924;-61
2022/08/07 06:48:30;;;;;;;;;;;;;;;-144.99;100.00;61100.13;5089196;28;20342;-62
2022/08/07 06:50:58;;;;;;;;;;;;;;;-144.99;100.00;61100.13;5088896;28;19939;-61
2022/08/07 06:53:26;;;;;;;;;;;;;;;-144.99;100.00;61100.13;5088567;28;19924;-64
2022/08/07 06:55:54;;;;;;;;;;;;;;;-144.99;100.00;61100.13;5088412;28;20204;-63
2022/08/07 06:58:21;;;;;;;;;;;;;;;-144.99;100.00;61100.13;5085889;28;20444;-64
2022/08/07 07:00:47;;;;;;;;;;;;;;;-144.99;100.00;61100.13;5084410;28;20400;-63
2022/08/07 07:03:16;;;;;;;;;;;;;;;-144.99;100.00;61100.13;5088956;28;19924;-63
2022/08/07 07:05:42;;;;;;;;;;;;;;;-144.99;100.00;61100.13;5088503;28;20425;-64
2022/08/07 07:08:11;;;;;;;;;;;;;;;-144.99;100.00;61100.13;5087929;28;19928;-63
2022/08/07 07:10:37;;;;;;;;;;;;;;;-144.99;100.00;61100.13;5092472;28;20300;-65
2022/08/07 07:13:08;;;;;;;;;;;;;;;-144.99;100.00;61100.13;5093660;28;19924;-64
2022/08/07 07:15:38;;;;;;;;;;;;;;;-144.99;100.00;61100.13;5094986;28;19928;-65
2022/08/07 07:18:07;;;;;;;;;;;;;;;-144.99;100.00;61100.13;5091060;28;19928;-66
2022/08/07 07:20:37;;;;;;;;;;;;;;;-144.99;100.00;61100.13;5096034;28;19924;-65
2022/08/07 07:23:04;;;;;;;;;;;;;;;-144.99;100.00;61100.13;5091297;28;19942;-64
2022/08/07 07:25:32;;;;;;;;;;;;;;;-144.99;100.00;61100.13;5096107;28;20377;-67
2022/08/07 07:28:01;;;;;;;;;;;;;;;-144.99;100.00;61100.13;5094315;28;20025;-64
2022/08/07 07:30:30;;;;;;;;;;;;;;;-144.99;100.00;61100.13;5086437;28;19939;-64
2022/08/07 07:32:57;;;;;;;;;;;;;;;-144.99;100.00;61100.13;5090939;28;20421;-65
2022/08/07 07:35:24;;;;;;;;;;;;;;;-144.99;100.00;61100.13;5096675;28;19931;-64
2022/08/07 07:37:53;;;;;;;;;;;;;;;-144.99;100.00;61100.13;5091788;28;20182;-64
2022/08/07 07:40:21;;;;;;;;;;;;;;;-144.99;100.00;61100.13;5094107;28;19925;-64
2022/08/07 07:42:51;;;;;;;;;;;;;;;-144.99;100.00;61100.13;5092617;28;20020;-63
2022/08/07 07:45:19;;;;;;;;;;;;;;;-144.99;100.00;61100.13;5092480;28;19924;-63
2022/08/07 07:47:46;;;;;;;;;;;;;;;-144.99;100.00;61100.13;5091713;28;19934;-64
2022/08/07 07:50:13;;;;;;;;;;;;;;;-144.99;100.00;61100.13;5091138;28;19972;-64
2022/08/07 07:52:41;;;;;;;;;;;;;;;-144.99;100.00;61100.13;5091862;28;20015;-64
2022/08/07 07:55:09;;;;;;;;;;;;;;;-144.99;100.00;61100.13;5092840;28;20004;-64
2022/08/07 07:57:37;;;;;;;;;;;;;;;-144.99;100.00;61100.13;5091412;28;19931;-65
2022/08/07 08:00:04;;;;;;;;;;;;;;;-144.99;100.00;61100.13;5090503;28;19928;-65
2022/08/07 08:02:33;;;;;;;;;;;;;;;-144.99;100.00;61100.13;5089687;28;19936;-64
2022/08/07 08:05:01;;;;;;;;;;;;;;;-144.99;100.00;61100.13;5080771;28;20476;-65
2022/08/07 08:07:29;;;;;;;;;;;;;;;-144.99;100.00;61100.13;5089700;28;20026;-65
2022/08/07 08:09:57;;;;;;;;;;;;;;;-144.99;100.00;61100.13;5090222;28;20019;-66
2022/08/07 08:12:25;;;;;;;;;;;;;;;-144.99;100.00;61100.13;5091737;28;20018;-61
2022/08/07 08:14:51;;;;;;;;;;;;;;;-144.99;100.00;61100.13;5092285;28;19930;-68
2022/08/07 08:17:18;;;;;;;;;;;;;;;-144.99;100.00;61100.13;5091962;28;19927;-66
2022/08/07 08:19:45;;;;;;;;;;;;;;;-144.99;100.00;61100.13;5090022;28;19932;-67
2022/08/07 08:27:44;;;;;;;;;;;;;;;-144.99;100.00;61100.13;5089913;28;19931;-66
2022/08/07 08:30:11;;;;;;;;;;;;;;;-144.99;100.00;61100.13;5085309;28;19939;-67
2022/08/07 08:32:40;;;;;;;;;;;;;;;-144.99;100.00;61100.13;5084515;28;20255;-67
2022/08/07 08:35:08;;;;;;;;;;;;;;;-144.99;100.00;61100.13;5091857;28;20051;-65
2022/08/07 08:37:36;;;;;;;;;;;;;;;-144.99;100.00;61100.13;5091405;28;20261;-69
2022/08/07 08:40:07;;;;;;;;;;;;;;;-144.99;100.00;61100.13;5089073;28;20300;-68
2022/08/07 08:42:37;;;;;;;;;;;;;;;-144.99;100.00;61100.13;5084593;28;19947;-65
2022/08/07 08:45:10;;;;;;;;;;;;;;;-144.99;100.00;61100.13;5088871;28;19928;-65
2022/08/07 08:47:40;;;;;;;;;;;;;;;-144.99;100.00;61100.13;5085918;28;19924;-65
2022/08/07 08:50:12;;;;;;;;;;;;;;;-144.99;100.00;61100.13;5087014;28;20554;-65
2022/08/07 08:52:44;;;;;;;;;;;;;;;-144.99;100.00;61100.13;5084479;28;20018;-65
2022/08/07 08:55:14;;;;;;;;;;;;;;;-144.99;100.00;61100.13;5086085;28;20436;-65
2022/08/07 08:57:44;;;;;;;;;;;;;;;-144.99;100.00;61100.13;5086847;28;20080;-67
2022/08/07 09:00:13;;;;;;;;;;;;;;;-144.99;100.00;61100.13;5086358;28;19970;-64
2022/08/07 09:02:45;;;;;;;;;;;;;;;-144.99;100.00;61100.13;5088014;28;19928;-66
2022/08/07 09:05:28;;;;;;;;;;;;;;;-144.99;100.00;61100.13;5082425;28;19930;-66
2022/08/07 09:07:59;;;;;;;;;;;;;;;-144.99;100.00;61100.13;5087323;28;20730;-65
2022/08/07 09:10:28;;;;;;;;;;;;;;;-144.99;100.00;61100.13;5086488;28;20670;-66
2022/08/07 09:12:59;;;;;;;;;;;;;;;-144.99;100.00;61100.13;5086886;28;19924;-65
2022/08/07 09:15:36;;;;;;;;;;;;;;;-144.99;100.00;61100.13;5083486;28;20367;-65
2022/08/07 09:18:14;;;;;;;;;;;;;;;-144.99;100.00;61100.13;5090925;28;20308;-65
2022/08/07 09:20:45;;;;;;;;;;;;;;;-144.99;100.00;61100.13;5091222;28;19932;-67
2022/08/07 09:23:19;;;;;;;;;;;;;;;-144.99;100.00;61100.13;5083851;28;19940;-67
2022/08/07 09:25:49;;;;;;;;;;;;;;;-144.99;100.00;61100.13;5083176;28;19966;-66
2022/08/07 09:28:24;;;;;;;;;;;;;;;-144.99;100.00;61100.13;5085692;28;19935;-68
2022/08/07 09:30:58;;;;;;;;;;;;;;;-144.99;100.00;61100.13;5086880;28;20410;-66
2022/08/07 09:33:35;;;;;;;;;;;;;;;-144.99;100.00;61100.13;5085413;28;19928;-66
2022/08/07 09:36:06;;;;;;;;;;;;;;;-144.99;100.00;61100.13;5083622;28;19967;-68
2022/08/07 09:38:38;;;;;;;;;;;;;;;-144.99;100.00;61100.13;5089608;28;19924;-65
2022/08/07 09:41:09;;;;;;;;;;;;;;;-144.99;100.00;61100.13;5088710;28;20339;-65
2022/08/07 09:43:43;;;;;;;;;;;;;;;-144.99;100.00;61100.13;5088146;28;19924;-64
2022/08/07 09:46:17;;;;;;;;;;;;;;;-144.99;100.00;61100.13;5087467;28;19959;-63
2022/08/07 09:48:49;;;;;;;;;;;;;;;-144.99;100.00;61100.13;5073617;28;19943;-63
2022/08/07 09:51:22;;;;;;;;;;;;;;;-144.99;100.00;61100.13;5086226;28;19924;-63
2022/08/07 09:53:51;;;;;;;;;;;;;;;-144.99;100.00;61100.13;5075149;28;19924;-63
2022/08/07 09:56:30;;;;;;;;;;;;;;;-144.99;100.00;61100.13;5087089;28;20014;-63
2022/08/07 09:59:11;;;;;;;;;;;;;;;-144.99;100.00;61100.13;5104258;22;20059;-65
2022/08/07 10:01:50;;;;;;;;;;;;;;;-144.99;100.00;61100.13;5085831;28;20018;-65
2022/08/07 10:04:24;;;;;;;;;;;;;;;-144.99;100.00;61100.13;5091499;28;19970;-65
2022/08/07 10:07:02;;;;;;;;;;;;;;;-144.99;100.00;61100.13;5090745;28;20418;-65
2022/08/07 10:09:38;;;;;;;;;;;;;;;-144.99;100.00;61100.13;5091353;28;19988;-66
2022/08/07 10:12:10;;;;;;;;;;;;;;;-144.99;100.00;61100.13;5068152;28;20022;-67
2022/08/07 10:14:51;;;;;;;;;;;;;;;-144.99;100.00;61100.13;5058972;28;19925;-66
2022/08/07 10:17:32;;;;;;;;;;;;;;;-144.99;100.00;61100.13;5079747;28;19930;-67
2022/08/07 10:20:08;;;;;;;;;;;;;;;-144.99;100.00;61100.13;5069899;28;20015;-65
2022/08/07 10:22:48;;;;;;;;;;;;;;;-144.99;100.00;61100.13;5064675;28;19932;-66
2022/08/07 10:25:28;;;;;;;;;;;;;;;-144.99;100.00;61100.13;5068362;28;20027;-65
2022/08/07 10:28:09;;;;;;;;;;;;;;;-144.99;100.00;61100.13;5070818;28;19924;-68
2022/08/07 10:30:43;;;;;;;;;;;;;;;-144.99;100.00;61100.13;5062695;28;20008;-66
2022/08/07 10:33:28;;;;;;;;;;;;;;;-144.99;100.00;61100.13;5067958;28;19951;-65
2022/08/07 10:36:00;;;;;;;;;;;;;;;-144.99;100.00;61100.13;5071211;28;20022;-66
2022/08/07 10:38:39;;;;;;;;;;;;;;;-144.99;100.00;61100.13;5067914;28;20305;-65
2022/08/07 10:41:09;;;;;;;;;;;;;;;-144.99;100.00;61100.13;5071076;28;19932;-66
2022/08/07 10:43:42;;;;;;;;;;;;;;;-144.99;100.00;61100.13;5069737;28;19925;-66
2022/08/07 10:46:13;;;;;;;;;;;;;;;-144.99;100.00;61100.13;5070801;28;19931;-65
2022/08/07 10:48:47;;;;;;;;;;;;;;;-144.99;100.00;61100.13;5071327;28;19951;-65
2022/08/07 10:51:18;;;;;;;;;;;;;;;-144.99;100.00;61100.13;5067955;28;19982;-66
2022/08/07 10:53:48;;;;;;;;;;;;;;;-144.99;100.00;61100.13;5065057;28;20019;-66
2022/08/07 10:56:20;;;;;;;;;;;;;;;-144.99;100.00;61100.13;5068584;28;19924;-66
2022/08/07 10:58:53;;;;;;;;;;;;;;;-144.99;100.00;61100.13;5070435;28;20411;-64
2022/08/07 11:01:25;;;;;;;;;;;;;;;-144.99;100.00;61100.13;5070153;28;19924;-64
2022/08/07 11:03:56;;;;;;;;;;;;;;;-144.99;100.00;61100.13;5068675;28;20292;-65
2022/08/07 11:06:28;;;;;;;;;;;;;;;-144.99;100.00;61100.13;5069453;28;20012;-67
2022/08/07 11:08:59;;;;;;;;;;;;;;;-144.99;100.00;61100.13;5071090;28;19952;-65
2022/08/07 11:11:35;;;;;;;;;;;;;;;-144.99;100.00;61100.13;5066936;28;19924;-66
2022/08/07 11:14:03;;;;;;;;;;;;;;;-144.99;100.00;61100.13;5068674;28;20400;-65
2022/08/07 11:16:33;;;;;;;;;;;;;;;-144.99;100.00;61100.13;5071356;28;20354;-65
2022/08/07 11:19:09;;;;;;;;;;;;;;;-144.99;100.00;61100.13;5071368;28;19956;-71
2022/08/07 11:21:42;;;;;;;;;;;;;;;-144.99;100.00;61100.13;5069021;28;19925;-66
2022/08/07 11:24:12;;;;;;;;;;;;;;;-144.99;100.00;61100.13;5063041;28;20015;-69
2022/08/07 11:26:41;;;;;;;;;;;;;;;-144.99;100.00;61100.13;5067947;28;19979;-68
2022/08/07 11:29:12;;;;;;;59.47;53.77;;;;;;;-144.99;100.00;61100.13;5071502;28;20409;-69
2022/08/07 11:31:45;;;;;;;;;;;;;;;-144.99;100.00;61100.13;5069182;28;20240;-67
2022/08/07 11:34:16;;;;;;;;;;;;;;;-144.99;100.00;61100.13;5066071;28;20316;-68
2022/08/07 11:36:49;;;;;;;;;;;;;;;-144.99;100.00;61100.13;5070600;28;19927;-64
2022/08/07 11:39:23;;;;;;;;;;;;;;;-144.99;100.00;61100.13;5070203;28;20432;-63
2022/08/07 11:41:54;;;;;;;;;;;;;;;-144.99;100.00;61100.13;5063904;28;19924;-64
2022/08/07 11:44:27;;;;;;;;;;;;;;;-144.99;100.00;61100.13;5068083;28;19931;-65
2022/08/07 11:47:00;;;;;;;;;;;;;;;-144.99;100.00;61100.13;5069584;28;20015;-64
2022/08/07 11:49:42;;;;;;;;;;;;;;;-144.99;100.00;61100.13;5069709;28;19926;-65
2022/08/07 11:52:19;;;;;;;;;;;;;;;-144.99;100.00;61100.13;5059818;28;20014;-73
2022/08/07 11:54:52;;;;;;;;;;;;;;;-144.99;100.00;61100.13;5056001;28;20574;-67
2022/08/07 11:57:21;;;;;;;;;;;;;;;-144.99;100.00;61100.13;5069799;28;20342;-66
2022/08/07 11:59:58;;;;;;;;;;;;;;;-144.99;100.00;61100.13;5070066;28;19921;-66
2022/08/07 12:02:31;;;;;;;;;;;;;;;-144.99;100.00;61100.13;5064685;28;20296;-63
2022/08/07 12:05:11;;;;;;;;;;;;;;;-144.99;100.00;61100.13;5066949;28;20525;-62
2022/08/07 12:07:44;;;;;;;;;;;;;;;-144.99;100.00;61100.13;5070482;28;20292;-66
2022/08/07 12:10:15;;;;;;;;;;;;;;;-144.99;100.00;61100.13;5066258;28;20015;-61
2022/08/07 12:12:44;;;;;;;;;;;;;;;-144.99;100.00;61100.13;5067506;28;19947;-67
2022/08/07 12:15:14;;;;;;;;;;;;;;;-144.99;100.00;61100.13;5072685;28;19920;-67
2022/08/07 12:17:43;;;;;;;;;;;;;;;-144.99;100.00;61100.13;5071921;28;19952;-63
2022/08/07 12:20:12;;;;;;;;;;;;;;;-144.99;100.00;61100.13;5072387;28;19931;-63
2022/08/07 12:22:44;;;;;;;;;;;;;;;-144.99;100.00;61100.13;5065428;28;19928;-66
2022/08/07 12:28:06;;;;;;;;;;;;;;;-144.99;100.00;61100.13;5056488;28;19931;-66
2022/08/07 12:30:34;;;;;;;;;;;;;;;-144.99;100.00;61100.13;5071054;28;19974;-67
2022/08/07 12:33:04;;;;;;;;;;;;;;;-144.99;100.00;61100.13;5072781;28;20022;-66
2022/08/07 12:35:32;;;;;;;;;;;;;;;-144.99;100.00;61100.13;5070952;28;19920;-66